Time;durP1;ratioP1;P1;durP2;ratioP2;P2;SDS_P1;SDS_P2;PMS_P1;PMS_P2;Temp;Humidity;BMP_temperature;BMP_pressure;BME280_temperature;BME280_humidity;BME280_pressure;Samples;Min_cycle;Max_cycle;Signal;HPM_P1;HPM_P2
2021/04/23 00:00:24;;;;;;;24.90;8.20;;;;;;;4.27;65.30;102739.56;5104523;28;20048;-63
2021/04/23 00:02:51;;;;;;;26.02;8.07;;;;;;;4.26;65.26;102732.53;5105316;28;20031;-61
2021/04/23 00:05:16;;;;;;;27.27;8.65;;;;;;;4.38;65.50;102734.97;5105185;28;20020;-61
2021/04/23 00:07:42;;;;;;;26.40;8.55;;;;;;;4.26;65.56;102728.19;5106284;28;20497;-61
2021/04/23 00:10:14;;;;;;;28.48;8.77;;;;;;;4.28;65.45;102731.81;5103567;28;20107;-61
2021/04/23 00:12:39;;;;;;;26.57;9.13;;;;;;;4.23;66.17;102733.22;5106952;28;20513;-61
2021/04/23 00:15:09;;;;;;;27.25;9.05;;;;;;;4.08;66.90;102733.22;5103400;28;20055;-61
2021/04/23 00:17:34;;;;;;;26.10;8.60;;;;;;;4.07;66.73;102731.41;5099353;28;20024;-62
2021/04/23 00:20:00;;;;;;;29.00;9.38;;;;;;;4.01;67.38;102728.41;5106590;28;20023;-61
2021/04/23 00:22:25;;;;;;;25.83;8.65;;;;;;;4.04;66.54;102725.09;5104225;28;20035;-61
2021/04/23 00:24:50;;;;;;;24.67;8.38;;;;;;;3.97;66.96;102735.16;5105094;28;20016;-62
2021/04/23 00:27:16;;;;;;;25.65;8.52;;;;;;;3.86;67.08;102737.94;5105670;28;20040;-61
2021/04/23 00:29:41;;;;;;;25.30;8.43;;;;;;;3.75;67.59;102735.53;5103603;28;20467;-61
2021/04/23 00:34:51;;;;;;;25.92;9.13;;;;;;;3.58;67.74;102739.75;5103912;28;20043;-61
2021/04/23 00:37:16;;;;;;;27.50;9.43;;;;;;;3.56;67.92;102741.34;5105424;28;20032;-61
2021/04/23 00:39:42;;;;;;;26.00;9.15;;;;;;;3.51;68.13;102744.47;5103668;28;20032;-61
2021/04/23 00:42:07;;;;;;;26.90;9.35;;;;;;;3.42;68.17;102737.88;5106491;28;20031;-61
2021/04/23 00:44:33;;;;;;;27.85;9.20;;;;;;;3.38;68.25;102743.69;5102966;28;20031;-61
2021/04/23 00:46:58;;;;;;;27.45;9.77;;;;;;;3.39;68.76;102740.25;5105944;28;20455;-62
2021/04/23 00:49:24;;;;;;;27.80;9.95;;;;;;;3.29;68.93;102740.47;5104028;28;20030;-61
2021/04/23 00:51:57;;;;;;;28.08;9.82;;;;;;;3.08;68.63;102743.50;5104641;28;20383;-61
2021/04/23 00:54:24;;;;;;;29.30;9.95;;;;;;;2.93;69.83;102740.81;5104066;28;20035;-62
2021/04/23 00:56:49;;;;;;;25.58;9.38;;;;;;;3.01;70.63;102738.69;5104403;28;20035;-62
2021/04/23 00:59:15;;;;;;;25.35;9.70;;;;;;;3.05;70.14;102740.69;5104562;28;20044;-62
2021/04/23 01:01:53;;;;;;;26.70;9.57;;;;;;;3.10;69.19;102739.31;5103149;28;20032;-61
2021/04/23 01:04:20;;;;;;;27.15;9.80;;;;;;;3.02;69.81;102734.38;5104673;28;20448;-62
2021/04/23 01:06:47;;;;;;;24.98;9.40;;;;;;;2.99;69.66;102744.66;5104087;28;20479;-61
2021/04/23 01:09:16;;;;;;;25.65;8.80;;;;;;;2.95;69.57;102739.19;5105028;28;20489;-62
2021/04/23 01:11:42;;;;;;;28.52;9.80;;;;;;;2.89;69.84;102743.13;5103030;28;20374;-61
2021/04/23 01:14:08;;;;;;;24.42;9.00;;;;;;;2.85;69.74;102747.22;5105560;28;20028;-62
2021/04/23 01:16:33;;;;;;;25.55;9.32;;;;;;;2.76;69.11;102744.91;5096800;28;20127;-62
2021/04/23 01:19:00;;;;;;;24.17;8.85;;;;;;;2.57;69.98;102750.59;5105209;28;20110;-61
2021/04/23 01:21:30;;;;;;;26.20;8.93;;;;;;;2.58;70.23;102756.75;5103597;28;20024;-62
2021/04/23 01:23:59;;;;;;;26.92;9.23;;;;;;;2.46;71.14;102750.69;5104765;28;20035;-62
2021/04/23 01:26:30;;;;;;;23.83;8.95;;;;;;;2.47;70.96;102758.63;5103465;28;20080;-62
2021/04/23 01:28:57;;;;;;;25.60;9.30;;;;;;;2.37;71.15;102757.09;5104647;28;20039;-61
2021/04/23 01:31:26;;;;;;;25.00;9.05;;;;;;;2.35;71.14;102748.25;5103644;28;20020;-62
2021/04/23 01:34:00;;;;;;;24.88;9.20;;;;;;;2.37;71.29;102749.25;5104113;28;20112;-61
2021/04/23 01:36:26;;;;;;;24.50;8.82;;;;;;;2.31;71.46;102754.06;5102913;28;20028;-62
2021/04/23 01:38:52;;;;;;;24.77;8.98;;;;;;;2.25;71.41;102754.53;5103830;28;20074;-61
2021/04/23 01:41:19;;;;;;;24.55;8.70;;;;;;;2.28;71.44;102746.03;5103982;28;20019;-61
2021/04/23 01:43:45;;;;;;;25.50;8.93;;;;;;;2.26;71.46;102748.53;5102508;28;20024;-61
2021/04/23 01:46:11;;;;;;;25.42;9.32;;;;;;;2.18;72.56;102748.81;5104912;28;20076;-61
2021/04/23 01:48:37;;;;;;;24.30;8.95;;;;;;;2.06;73.37;102754.97;5101571;28;20117;-61
2021/04/23 01:51:07;;;;;;;24.90;8.82;;;;;;;1.96;73.29;102749.91;5105028;28;20250;-61
2021/04/23 01:53:32;;;;;;;24.98;9.50;;;;;;;1.77;73.05;102742.50;5101963;28;20473;-61
2021/04/23 01:55:58;;;;;;;25.73;9.50;;;;;;;1.74;73.81;102745.81;5104191;28;20116;-61
2021/04/23 01:58:24;;;;;;;25.60;9.55;;;;;;;1.67;73.72;102748.75;5102780;28;20050;-61
2021/04/23 02:00:51;;;;;;;27.02;9.50;;;;;;;1.64;73.90;102745.94;5103129;28;20425;-61
2021/04/23 02:03:18;;;;;;;26.95;9.57;;;;;;;1.61;74.07;102753.56;5104026;28;20436;-62
2021/04/23 02:05:44;;;;;;;27.25;9.73;;;;;;;1.63;74.44;102746.75;5102053;28;20028;-61
2021/04/23 02:08:14;;;;;;;25.60;9.77;;;;;;;1.56;74.29;102742.81;5104852;28;20134;-61
2021/04/23 02:10:54;;;;;;;26.80;10.52;;;;;;;1.54;75.13;102753.91;5101521;28;20024;-61
2021/04/23 02:13:23;;;;;;;27.45;9.70;;;;;;;1.50;75.86;102757.09;5103495;28;20081;-61
2021/04/23 02:15:49;;;;;;;27.45;9.95;;;;;;;1.34;75.93;102755.06;5102600;28;20057;-61
2021/04/23 02:18:15;;;;;;;26.02;9.65;;;;;;;1.28;75.25;102755.56;5104254;28;20038;-61
2021/04/23 02:20:40;;;;;;;25.25;9.73;;;;;;;1.26;76.29;102764.94;5101431;28;20020;-61
2021/04/23 02:23:09;;;;;;;28.05;9.93;;;;;;;1.24;75.91;102763.03;5104731;28;20027;-61
2021/04/23 02:25:36;;;;;;;27.60;10.18;;;;;;;1.19;75.94;102762.69;5096369;28;20024;-61
2021/04/23 02:28:06;;;;;;;25.50;9.85;;;;;;;1.17;76.42;102765.19;5104168;28;20031;-61
2021/04/23 02:30:35;;;;;;;26.10;10.82;;;;;;;1.19;76.76;102763.63;5101267;28;20479;-61
2021/04/23 02:33:02;;;;;;;29.67;13.13;;;;;;;1.14;76.42;102775.38;5104283;28;20034;-62
2021/04/23 02:35:28;;;;;;;27.50;12.63;;;;;;;1.10;76.74;102773.34;5101867;28;20168;-62
2021/04/23 02:37:55;;;;;;;29.65;12.98;;;;;;;1.02;77.63;102775.41;5102925;28;20119;-62
2021/04/23 02:40:24;;;;;;;28.42;12.32;;;;;;;0.97;78.26;102779.34;5103298;28;20027;-62
2021/04/23 02:42:51;;;;;;;28.48;12.55;;;;;;;0.90;78.12;102774.47;5102368;28;20477;-62
2021/04/23 02:45:22;;;;;;;28.67;12.48;;;;;;;0.95;77.23;102780.03;5103300;28;20489;-62
2021/04/23 02:47:48;;;;;;;29.35;12.13;;;;;;;0.96;77.20;102785.38;5101962;28;20031;-62
2021/04/23 02:50:16;;;;;;;28.45;11.70;;;;;;;0.90;77.56;102784.88;5103965;28;20028;-63
2021/04/23 02:52:41;;;;;;;29.77;12.70;;;;;;;0.90;77.96;102784.00;5101268;28;20031;-62
2021/04/23 02:55:09;;;;;;;27.67;11.45;;;;;;;0.91;77.09;102781.50;5104726;28;20015;-62
2021/04/23 02:57:35;;;;;;;29.83;11.85;;;;;;;0.81;76.81;102782.50;5097063;28;20020;-62
2021/04/23 03:00:00;;;;;;;27.73;11.43;;;;;;;0.86;76.81;102783.75;5103688;28;20054;-62
2021/04/23 03:02:26;;;;;;;28.35;11.50;;;;;;;0.81;77.04;102785.09;5101992;28;20412;-62
2021/04/23 03:04:51;;;;;;;28.15;11.45;;;;;;;0.79;77.24;102785.81;5102781;28;20051;-62
2021/04/23 03:07:20;;;;;;;29.83;11.73;;;;;;;0.73;77.80;102788.84;5102970;28;20466;-62
2021/04/23 03:09:46;;;;;;;29.40;11.45;;;;;;;0.71;78.25;102797.31;5101724;28;20102;-62
2021/04/23 03:12:12;;;;;;;27.20;11.20;;;;;;;0.64;77.70;102791.66;5104043;28;20047;-62
2021/04/23 03:14:37;;;;;;;29.05;11.23;;;;;;;0.68;77.83;102793.72;5100776;28;20028;-62
2021/04/23 03:17:02;;;;;;;29.08;11.18;;;;;;;0.67;78.23;102797.09;5104102;28;20107;-62
2021/04/23 03:19:28;;;;;;;26.83;10.50;;;;;;;0.66;77.56;102797.88;5101551;28;20020;-63
2021/04/23 03:21:53;;;;;;;27.00;10.68;;;;;;;0.68;77.08;102793.72;5102491;28;20483;-62
2021/04/23 03:24:19;;;;;;;26.13;10.07;;;;;;;0.60;77.55;102796.53;5103180;28;20099;-62
2021/04/23 03:26:45;;;;;;;25.95;10.07;;;;;;;0.57;76.89;102793.66;5101237;28;20023;-62
2021/04/23 03:29:13;;;;;;;26.08;10.02;;;;;;;0.51;76.88;102801.91;5103770;28;20027;-62
2021/04/23 03:31:38;;;;;;;26.02;10.60;;;;;;;0.48;76.91;102800.00;5100716;28;20023;-62
2021/04/23 03:34:05;;;;;;;27.33;10.45;;;;;;;0.47;76.91;102803.38;5103999;28;20016;-62
2021/04/23 03:36:31;;;;;;;26.98;10.68;;;;;;;0.35;77.16;102807.66;5102996;28;20035;-62
2021/04/23 03:38:56;;;;;;;27.30;10.85;;;;;;;0.33;78.34;102799.69;5106832;28;20073;-62
2021/04/23 03:41:31;;;;;;;25.85;10.45;;;;;;;0.32;78.22;102807.38;5105760;28;20023;-62
2021/04/23 03:43:58;;;;;;;27.65;10.88;;;;;;;0.27;78.02;102798.34;5106754;28;20031;-62
2021/04/23 03:46:25;;;;;;;28.98;11.82;;;;;;;0.24;78.99;102800.72;5105721;28;20027;-62
2021/04/23 03:48:51;;;;;;;27.65;11.00;;;;;;;0.17;79.35;102812.31;5105395;28;20060;-62
2021/04/23 03:51:19;;;;;;;26.15;10.73;;;;;;;0.22;79.43;102810.06;5106349;28;20031;-63
2021/04/23 03:53:45;;;;;;;28.70;10.68;;;;;;;0.22;79.83;102820.47;5104624;28;20471;-62
2021/04/23 03:56:12;;;;;;;27.10;10.40;;;;;;;0.32;79.13;102820.41;5107254;28;20030;-63
2021/04/23 03:58:39;;;;;;;27.45;10.98;;;;;;;0.37;79.39;102813.88;5103575;28;20489;-63
2021/04/23 04:01:09;;;;;;;30.10;11.40;;;;;;;0.36;79.53;102808.56;5107770;28;20036;-62
2021/04/23 04:03:36;;;;;;;26.63;11.48;;;;;;;0.38;79.74;102812.16;5104167;28;20077;-62
2021/04/23 04:06:03;;;;;;;26.75;11.30;;;;;;;0.31;80.48;102819.50;5106637;28;20490;-62
2021/04/23 04:08:29;;;;;;;27.92;11.00;;;;;;;0.26;80.33;102818.25;5104144;28;20035;-62
2021/04/23 04:10:54;;;;;;;28.63;11.55;;;;;;;0.28;80.47;102816.66;5105700;28;20035;-62
2021/04/23 04:13:19;;;;;;;28.27;11.68;;;;;;;0.28;80.23;102818.38;5105565;28;20030;-62
2021/04/23 04:15:45;;;;;;;27.35;11.57;;;;;;;0.28;80.21;102824.47;5104459;28;20028;-62
2021/04/23 04:18:12;;;;;;;27.65;11.40;;;;;;;0.29;79.96;102828.91;5106894;28;20028;-62
2021/04/23 04:20:40;;;;;;;28.73;11.75;;;;;;;0.22;80.43;102824.00;5103359;28;20103;-62
2021/04/23 04:23:08;;;;;;;28.40;11.68;;;;;;;0.29;80.01;102833.19;5099137;28;20066;-62
2021/04/23 04:25:37;;;;;;;27.83;11.02;;;;;;;0.28;79.25;102836.59;5106683;28;20098;-62
2021/04/23 04:28:04;;;;;;;27.95;11.38;;;;;;;0.18;79.41;102837.56;5103658;28;20443;-62
2021/04/23 04:30:29;;;;;;;30.70;12.30;;;;;;;0.11;79.83;102832.66;5105711;28;20020;-62
2021/04/23 04:32:56;;;;;;;29.23;11.73;;;;;;;0.16;79.91;102836.50;5104740;28;20019;-62
2021/04/23 04:35:22;;;;;;;29.35;11.23;;;;;;;0.10;79.41;102846.44;5104702;28;20024;-62
2021/04/23 04:37:48;;;;;;;29.38;11.52;;;;;;;0.14;79.49;102843.28;5105543;28;20110;-62
2021/04/23 04:40:14;;;;;;;28.70;11.25;;;;;;;0.07;79.84;102846.19;5103735;28;20123;-61
2021/04/23 04:42:40;;;;;;;30.45;12.57;;;;;;;0.14;79.40;102857.19;5106469;28;20028;-61
2021/04/23 04:45:10;;;;;;;29.90;12.05;;;;;;;0.15;79.09;102848.63;5098795;28;20027;-61
2021/04/23 04:47:36;;;;;;;28.45;11.48;;;;;;;0.05;79.52;102850.38;5097982;28;20107;-61
2021/04/23 04:50:09;;;;;;;30.15;12.13;;;;;;;0.13;79.79;102859.69;5105795;28;20385;-61
2021/04/23 04:52:34;;;;;;;30.38;11.88;;;;;;;0.15;79.24;102855.53;5102987;28;20028;-61
2021/04/23 04:55:02;;;;;;;29.48;12.45;;;;;;;0.14;79.14;102857.19;5105785;28;20427;-61
2021/04/23 04:57:27;;;;;;;28.63;10.85;;;;;;;0.23;78.82;102859.63;5102640;28;20399;-61
2021/04/23 04:59:52;;;;;;;32.35;12.25;;;;;;;0.21;78.82;102860.31;5104082;28;20056;-61
2021/04/23 05:02:18;;;;;;;29.65;11.50;;;;;;;0.23;78.81;102864.81;5105250;28;20057;-61
2021/04/23 05:04:43;;;;;;;31.20;11.93;;;;;;;0.20;78.05;102861.09;5102851;28;20584;-61
2021/04/23 05:07:09;;;;;;;29.80;11.70;;;;;;;0.15;78.54;102872.03;5106072;28;20526;-61
2021/04/23 05:09:34;;;;;;;33.05;13.05;;;;;;;0.06;79.02;102875.59;5102365;28;20379;-61
2021/04/23 05:12:00;;;;;;;32.42;13.35;;;;;;;0.09;79.26;102878.47;5105176;28;20153;-61
2021/04/23 05:14:25;;;;;;;29.20;12.60;;;;;;;0.25;79.68;102881.47;5103802;28;20016;-61
2021/04/23 05:16:51;;;;;;;32.40;13.38;;;;;;;0.26;79.53;102888.50;5104108;28;20020;-61
2021/04/23 05:19:18;;;;;;;32.20;13.63;;;;;;;0.33;79.61;102893.38;5104842;28;20015;-61
2021/04/23 05:21:46;;;;;;;32.55;12.82;;;;;;;0.34;80.14;102894.31;5102383;28;20032;-62
2021/04/23 05:24:12;;;;;;;33.17;13.25;;;;;;;0.42;80.24;102893.19;5095662;28;20024;-61
2021/04/23 05:26:38;;;;;;;33.33;13.63;;;;;;;0.45;80.10;102897.72;5096343;28;20031;-61
2021/04/23 05:29:04;;;;;;;31.25;12.88;;;;;;;0.49;80.03;102894.59;5101633;28;20035;-62
2021/04/23 05:31:33;;;;;;;34.83;13.52;;;;;;;0.62;80.62;102892.16;5100638;28;20028;-62
2021/04/23 05:33:59;;;;;;;35.85;13.50;;;;;;;0.58;80.66;102895.28;5098837;28;20027;-63
2021/04/23 05:36:24;;;;;;;32.85;14.23;;;;;;;0.60;80.73;102901.53;5098220;28;20095;-63
2021/04/23 05:38:50;;;;;;;34.63;13.68;;;;;;;0.66;80.82;102903.72;5098280;28;20506;-63
2021/04/23 05:41:15;;;;;;;33.08;13.63;;;;;;;0.73;81.16;102907.69;5100443;28;20062;-62
2021/04/23 05:43:42;;;;;;;33.65;14.60;;;;;;;0.84;80.63;102909.44;5099780;28;20032;-63
2021/04/23 05:46:08;;;;;;;32.70;13.02;;;;;;;0.98;81.07;102908.78;5096880;28;20023;-62
2021/04/23 05:48:33;;;;;;;31.38;13.48;;;;;;;1.09;81.20;102911.31;5098807;28;20462;-62
2021/04/23 05:50:58;;;;;;;34.05;13.93;;;;;;;1.21;80.68;102912.25;5098143;28;20080;-63
2021/04/23 05:53:24;;;;;;;34.70;14.07;;;;;;;1.29;81.04;102916.31;5097499;28;20171;-62
2021/04/23 05:55:49;;;;;;;34.33;14.38;;;;;;;1.35;80.56;102922.00;5095456;28;20050;-62
2021/04/23 05:58:15;;;;;;;34.72;14.90;;;;;;;1.37;81.55;102919.53;5099269;28;20068;-62
2021/04/23 06:00:42;;;;;;;38.05;15.23;;;;;;;1.50;81.81;102921.31;5095528;28;20139;-62
2021/04/23 06:03:08;;;;;;;37.53;15.70;;;;;;;1.65;82.56;102917.25;5098529;28;20046;-63
2021/04/23 06:05:34;;;;;;;38.92;16.33;;;;;;;1.80;83.33;102925.28;5096651;28;20467;-61
2021/04/23 06:08:02;;;;;;;38.15;16.38;;;;;;;1.98;83.76;102922.22;5097997;28;20024;-63
2021/04/23 06:10:28;;;;;;;38.38;16.85;;;;;;;2.17;81.47;102920.16;5098611;28;20027;-62
2021/04/23 06:12:55;;;;;;;38.03;17.08;;;;;;;2.30;81.88;102919.31;5098648;28;20036;-62
2021/04/23 06:15:22;;;;;;;38.42;18.55;;;;;;;2.51;83.89;102925.16;5090888;28;20023;-63
2021/04/23 06:17:48;;;;;;;38.08;18.55;;;;;;;2.65;82.81;102920.91;5098119;28;20028;-62
2021/04/23 06:20:17;;;;;;;40.55;18.85;;;;;;;2.78;83.64;102920.94;5098610;28;20069;-62
2021/04/23 06:22:42;;;;;;;40.47;20.77;;;;;;;3.08;85.85;102928.19;5099826;28;20062;-62
2021/04/23 06:25:10;;;;;;;41.70;20.17;;;;;;;3.20;84.50;102928.09;5101341;27;20063;-63
2021/04/23 06:27:36;;;;;;;39.15;19.15;;;;;;;3.36;83.93;102927.41;5097938;28;20024;-63
2021/04/23 06:30:05;;;;;;;34.88;16.10;;;;;;;3.45;82.09;102926.34;5101460;28;20367;-63
2021/04/23 06:32:31;;;;;;;36.00;16.52;;;;;;;3.54;82.39;102923.44;5098494;28;20494;-61
2021/04/23 06:34:56;;;;;;;37.88;16.63;;;;;;;3.66;81.18;102932.06;5096839;28;20028;-61
2021/04/23 06:37:21;;;;;;;37.03;15.68;;;;;;;3.81;80.91;102937.38;5100674;28;20031;-61
2021/04/23 06:39:47;;;;;;;40.63;15.80;;;;;;;3.93;80.55;102939.94;5100138;28;20024;-61
2021/04/23 06:42:12;;;;;;;33.38;14.68;;;;;;;4.07;80.98;102938.19;5100792;28;20032;-61
2021/04/23 06:44:39;;;;;;;33.78;13.48;;;;;;;4.14;79.50;102935.16;5100431;28;20513;-62
2021/04/23 06:47:04;;;;;;;32.50;13.30;;;;;;;4.27;78.62;102935.97;5100849;28;20024;-62
2021/04/23 06:49:30;;;;;;;30.73;12.25;;;;;;;4.32;77.46;102935.41;5101121;28;20035;-63
2021/04/23 06:51:57;;;;;;;29.90;12.80;;;;;;;4.46;77.85;102945.88;5101153;28;20036;-62
2021/04/23 06:54:22;;;;;;;31.75;11.20;;;;;;;4.55;76.07;102941.19;5103299;28;20038;-61
2021/04/23 06:56:48;;;;;;;29.60;11.45;;;;;;;4.67;75.79;102944.56;5100518;28;20390;-62
2021/04/23 06:59:13;;;;;;;28.98;10.57;;;;;;;4.71;74.66;102943.06;5103769;28;20068;-62
2021/04/23 07:01:39;;;;;;;29.17;9.45;;;;;;;4.79;74.78;102944.44;5101430;28;20366;-62
2021/04/23 07:04:04;;;;;;;30.83;9.75;;;;;;;4.88;74.24;102946.72;5102961;28;20032;-62
2021/04/23 07:06:29;;;;;;;29.02;9.27;;;;;;;4.99;73.60;102945.63;5102311;28;20055;-62
2021/04/23 07:08:55;;;;;;;28.23;9.10;;;;;;;5.05;72.53;102947.72;5101386;28;20032;-61
2021/04/23 07:11:21;;;;;;;24.75;8.02;;;;;;;5.11;71.77;102957.69;5105281;28;20027;-61
2021/04/23 07:13:46;;;;;;;27.35;8.18;;;;;;;5.14;70.41;102961.41;5104805;28;20024;-61
2021/04/23 07:16:12;;;;;;;27.08;9.02;;;;;;;5.28;71.64;102963.97;5108048;28;20545;-62
2021/04/23 07:18:37;;;;;;;26.88;9.68;;;;;;;5.44;71.72;102955.28;5105298;28;20486;-61
2021/04/23 07:21:02;;;;;;;27.77;9.30;;;;;;;5.54;71.80;102945.41;5106462;28;20028;-61
2021/04/23 07:23:28;;;;;;;26.95;8.85;;;;;;;5.62;70.05;102963.31;5106663;28;20028;-61
2021/04/23 07:25:53;;;;;;;26.95;8.00;;;;;;;5.76;70.03;102950.16;5105242;28;20054;-61
2021/04/23 07:28:19;;;;;;;24.70;8.00;;;;;;;5.80;68.14;102961.78;5107722;28;20530;-61
2021/04/23 07:30:45;;;;;;;25.63;8.77;;;;;;;5.98;68.97;102966.31;5104589;28;20035;-61
2021/04/23 07:33:14;;;;;;;25.13;7.80;;;;;;;6.22;68.20;102965.06;5107729;28;20525;-61
2021/04/23 07:35:45;;;;;;;24.58;6.93;;;;;;;6.47;66.61;102953.28;5104758;28;20020;-62
2021/04/23 07:38:11;;;;;;;26.67;6.93;;;;;;;6.63;64.07;102957.66;5107417;28;20028;-62
2021/04/23 07:40:37;;;;;;;25.15;6.88;;;;;;;6.84;63.32;102952.63;5105048;28;20055;-62
2021/04/23 07:43:02;;;;;;;27.30;6.82;;;;;;;6.95;61.62;102953.22;5105914;28;20525;-62
2021/04/23 07:45:28;;;;;;;25.58;6.40;;;;;;;6.97;61.83;102954.19;5106691;28;20459;-62
2021/04/23 07:47:55;;;;;;;23.10;6.55;;;;;;;7.13;60.80;102954.16;5104530;28;20375;-62
2021/04/23 07:50:24;;;;;;;24.05;6.35;;;;;;;7.46;60.40;102951.47;5107469;28;20019;-63
2021/04/23 07:52:51;;;;;;;24.73;6.05;;;;;;;7.77;59.82;102949.47;5104073;28;20443;-62
2021/04/23 07:55:17;;;;;;;23.25;6.30;;;;;;;7.93;58.46;102946.75;5107471;28;20024;-62
2021/04/23 07:57:43;;;;;;;23.52;6.30;;;;;;;8.03;57.61;102946.34;5102958;27;20036;-63
2021/04/23 08:00:10;;;;;;;24.02;6.90;;;;;;;8.03;57.10;102951.63;5106408;28;20438;-62
2021/04/23 08:02:36;;;;;;;25.02;7.20;;;;;;;8.15;59.04;102946.03;5105092;28;20066;-62
2021/04/23 08:05:03;;;;;;;23.98;6.65;;;;;;;8.07;56.63;102952.69;5105307;28;20428;-62
2021/04/23 08:07:28;;;;;;;22.77;6.25;;;;;;;8.36;55.43;102946.16;5105884;28;20026;-62
2021/04/23 08:09:53;;;;;;;23.42;6.30;;;;;;;8.86;54.53;102952.00;5104031;28;20508;-62
2021/04/23 08:12:19;;;;;;;23.10;6.80;;;;;;;9.32;53.37;102954.84;5107075;28;20062;-62
2021/04/23 08:14:44;;;;;;;24.63;6.55;;;;;;;9.66;51.35;102943.97;5103865;28;20474;-62
2021/04/23 08:17:09;;;;;;;23.38;6.45;;;;;;;10.10;49.97;102947.50;5106342;28;20450;-62
2021/04/23 08:19:35;;;;;;;22.85;5.90;;;;;;;11.11;47.81;102944.28;5100225;28;20466;-62
2021/04/23 08:22:02;;;;;;;21.25;5.70;;;;;;;11.94;45.97;102942.66;5101090;28;20019;-62
2021/04/23 08:24:27;;;;;;;22.42;5.82;;;;;;;12.28;44.46;102941.06;5106478;27;20015;-62
2021/04/23 08:26:52;;;;;;;22.00;5.97;;;;;;;12.52;43.78;102949.78;5105374;28;20035;-62
2021/04/23 08:29:18;;;;;;;25.45;6.07;;;;;;;12.73;43.05;102940.63;5107763;28;20032;-61
2021/04/23 08:31:43;;;;;;;24.63;5.97;;;;;;;13.09;42.51;102939.84;5103757;28;20024;-62
2021/04/23 08:34:10;;;;;;;23.60;6.22;;;;;;;12.99;42.70;102937.78;5104494;28;20112;-62
2021/04/23 08:36:35;;;;;;;22.00;6.03;;;;;;;12.91;43.77;102932.28;5106076;28;20036;-63
2021/04/23 08:39:02;;;;;;;22.30;5.82;;;;;;;12.95;42.32;102930.63;5103817;28;20027;-62
2021/04/23 08:41:27;;;;;;;21.65;5.57;;;;;;;13.34;41.84;102930.81;5103646;28;20110;-62
2021/04/23 08:43:53;;;;;;;20.85;5.90;;;;;;;13.93;41.36;102922.50;5105159;28;20102;-63
2021/04/23 08:46:18;;;;;;;23.17;5.70;;;;;;;14.35;39.83;102917.25;5104795;28;20032;-62
2021/04/23 08:48:44;;;;;;;22.98;5.70;;;;;;;14.54;37.84;102910.53;5100772;28;20118;-64
2021/04/23 08:51:10;;;;;;;20.48;5.72;;;;;;;14.76;37.98;102917.22;5101232;28;20039;-64
2021/04/23 08:53:37;;;;;;;22.27;5.90;;;;;;;14.93;37.88;102917.56;5100867;28;20478;-63
2021/04/23 08:56:02;;;;;;;22.10;6.13;;;;;;;14.84;37.82;102912.97;5102936;28;20386;-63
2021/04/23 08:58:27;;;;;;;22.55;5.60;;;;;;;15.44;36.59;102913.13;5099817;28;20035;-64
2021/04/23 09:00:53;;;;;;;21.38;5.78;;;;;;;15.95;35.54;102917.53;5104231;28;20044;-63
2021/04/23 09:03:21;;;;;;;21.52;6.20;;;;;;;16.12;35.17;102908.88;5101700;28;20067;-62
2021/04/23 09:06:21;;;;;;;22.25;5.65;;;;;;;16.55;36.77;102912.09;5099948;28;20117;-63
2021/04/23 09:08:53;;;;;;;21.40;5.95;;;;;;;16.90;35.17;102917.88;5099601;27;20395;-63
2021/04/23 09:11:21;;;;;;;22.02;5.90;;;;;;;17.07;33.00;102917.16;5097866;28;20113;-63
2021/04/23 09:13:50;;;;;;;23.67;6.15;;;;;;;17.06;33.50;102918.94;5100002;28;20028;-63
2021/04/23 09:16:18;;;;;;;20.98;5.80;;;;;;;16.30;34.35;102914.47;5100077;28;20028;-63
2021/04/23 09:18:43;;;;;;;22.02;5.95;;;;;;;15.24;35.04;102919.00;5099031;28;20136;-63
2021/04/23 09:21:14;;;;;;;22.85;6.25;;;;;;;14.91;37.19;102917.53;5103562;28;20635;-63
2021/04/23 09:23:53;;;;;;;23.75;6.10;;;;;;;15.67;36.78;102922.41;5099092;28;20036;-63
2021/04/23 09:26:36;;;;;;;21.95;5.90;;;;;;;16.26;35.10;102917.97;5098188;28;20015;-64
2021/04/23 09:29:19;;;;;;;22.48;6.30;;;;;;;16.44;33.56;102913.72;5096571;28;20027;-63
2021/04/23 09:31:45;;;;;;;21.20;6.05;;;;;;;17.57;32.16;102910.47;5094295;28;20031;-64
2021/04/23 09:34:11;;;;;;;20.50;5.70;;;;;;;18.28;30.22;102910.97;5098078;28;20023;-64
2021/04/23 09:36:46;;;;;;;21.90;5.82;;;;;;;18.71;29.47;102911.16;5098167;28;20027;-63
2021/04/23 09:39:15;;;;;;;22.65;5.65;;;;;;;19.22;29.48;102918.41;5099122;28;20043;-63
2021/04/23 09:41:46;;;;;;;22.70;6.07;;;;;;;19.40;28.60;102912.19;5095860;28;20039;-64
2021/04/23 09:44:40;;;;;;;21.10;5.72;;;;;;;19.41;29.41;102911.25;5096345;28;20429;-63
2021/04/23 09:47:13;;;;;;;21.45;5.85;;;;;;;19.44;28.96;102906.81;5095313;28;20107;-65
2021/04/23 09:49:39;;;;;;;20.40;5.65;;;;;;;20.31;27.22;102914.72;5098163;28;20024;-62
2021/04/23 09:52:07;;;;;;;22.55;6.38;;;;;;;20.71;25.53;102911.88;5100177;28;20023;-62
2021/04/23 09:54:34;;;;;;;22.95;5.88;;;;;;;20.99;26.32;102912.59;5096522;28;20024;-63
2021/04/23 09:57:00;;;;;;;22.75;6.10;;;;;;;20.26;26.84;102906.69;5099134;28;20039;-63
2021/04/23 09:59:28;;;;;;;21.27;5.90;;;;;;;19.94;26.82;102904.09;5098656;28;20019;-63
2021/04/23 10:02:01;;;;;;;22.05;5.68;;;;;;;20.34;27.67;102906.63;5098832;28;20032;-62
2021/04/23 10:04:35;;;;;;;22.08;6.15;;;;;;;20.45;27.31;102907.50;5098321;28;20034;-64
2021/04/23 10:07:26;;;;;;;21.75;5.90;;;;;;;20.96;27.80;102909.94;5101253;28;20039;-64
2021/04/23 10:10:01;;;;;;;21.30;6.00;;;;;;;21.32;25.08;102897.13;5100314;28;20037;-64
2021/04/23 10:12:35;;;;;;;22.90;5.78;;;;;;;21.81;25.15;102894.91;5098331;28;20030;-64
2021/04/23 10:15:27;;;;;;;21.13;5.72;;;;;;;22.38;24.96;102897.88;5101624;28;20031;-64
2021/04/23 10:17:56;;;;;;;19.85;5.50;;;;;;;22.06;24.65;102906.28;5061180;28;20519;-66
2021/04/23 10:20:26;;;;;;;21.17;5.90;;;;;;;22.23;24.80;102895.31;5059842;28;20438;-65
2021/04/23 10:22:53;;;;;;;21.98;5.70;;;;;;;22.61;24.26;102905.63;5060073;28;20040;-64
2021/04/23 10:25:19;;;;;;;22.63;6.15;;;;;;;22.64;24.14;102904.69;5042708;28;20055;-64
2021/04/23 10:27:46;;;;;;;20.88;5.85;;;;;;;22.92;22.87;102899.81;5061412;28;20033;-64
2021/04/23 10:30:18;;;;;;;22.40;6.20;;;;;;;23.66;22.92;102904.00;5058606;28;20079;-64
2021/04/23 10:32:47;;;;;;;23.45;6.03;;;;;;;24.07;21.99;102898.75;5061334;28;20485;-64
2021/04/23 10:35:13;;;;;;;22.55;6.20;;;;;;;24.02;21.22;102892.56;5058982;28;20048;-64
2021/04/23 10:37:42;;;;;;;21.70;5.93;;;;;;;24.42;21.54;102899.84;5062034;28;20028;-64
2021/04/23 10:40:09;;;;;;;21.45;6.43;;;;;;;24.87;20.67;102906.94;5054634;28;20033;-64
2021/04/23 10:42:56;;;;;;;21.52;6.07;;;;;;;25.13;21.01;102889.22;5061714;28;20033;-64
2021/04/23 10:45:23;;;;;;;20.13;5.47;;;;;;;25.23;20.76;102888.94;5059732;28;20044;-64
2021/04/23 10:47:50;;;;;;;22.20;5.82;;;;;;;25.28;19.66;102880.72;5064880;28;20067;-64
2021/04/23 10:50:22;;;;;;;19.25;5.63;;;;;;;25.53;20.70;102881.00;5051190;28;20040;-64
2021/04/23 10:53:08;;;;;;;23.63;6.05;;;;;;;25.13;21.22;102881.09;5056394;28;20029;-65
2021/04/23 10:55:39;;;;;;;21.45;5.72;;;;;;;24.77;21.77;102884.66;5095872;28;20478;-63
2021/04/23 10:58:05;;;;;;;20.65;5.60;;;;;;;25.11;20.95;102880.25;5102357;28;20028;-62
2021/04/23 11:00:37;;;;;;;20.13;5.68;;;;;;;25.68;20.09;102879.69;5101207;28;20046;-63
2021/04/23 11:03:20;;;;;;;21.25;5.43;;;;;;;26.54;19.86;102886.28;5103273;28;20020;-62
2021/04/23 11:05:47;;;;;;;20.67;5.63;;;;;;;26.31;19.19;102874.28;5101368;28;20089;-63
2021/04/23 11:08:12;;;;;;;21.27;5.50;;;;;;;26.71;19.09;102886.66;5102273;28;20113;-63
2021/04/23 11:11:02;;;;;;;22.55;5.38;;;;;;;27.60;19.27;102881.91;5100761;28;20059;-64
2021/04/23 11:13:29;;;;;;;19.98;5.68;;;;;;;27.96;17.82;102876.06;5097778;28;20035;-63
2021/04/23 11:16:26;;;;;;;21.33;5.60;;;;;;;28.35;18.20;102878.22;5100594;28;20039;-62
2021/04/23 11:19:18;;;;;;;21.17;5.55;;;;;;;27.91;17.38;102876.22;5094077;28;20031;-62
2021/04/23 11:21:44;;;;;;;;;;;;;;;28.65;17.33;102875.28;5100091;28;20110;-63
2021/04/23 11:24:25;;;;;;;20.17;5.40;;;;;;;28.31;17.04;102877.47;5098618;28;19995;-63